sensor_id;sensor_type;location;lat;lon;timestamp;P1;durP1;ratioP1;P2;durP2;ratioP2
22907;SDS011;11620;50.050;8.690;2023-07-13T00:02:24;0.32;;;0.32;;
22907;SDS011;11620;50.050;8.690;2023-07-13T00:05:12;0.30;;;0.30;;
22907;SDS011;11620;50.050;8.690;2023-07-13T00:07:58;0.30;;;0.30;;
22907;SDS011;11620;50.050;8.690;2023-07-13T00:10:46;0.30;;;0.30;;
22907;SDS011;11620;50.050;8.690;2023-07-13T00:13:32;0.30;;;0.30;;
22907;SDS011;11620;50.050;8.690;2023-07-13T00:16:18;0.30;;;0.30;;
22907;SDS011;11620;50.050;8.690;2023-07-13T00:19:05;0.38;;;0.38;;
22907;SDS011;11620;50.050;8.690;2023-07-13T00:21:52;0.40;;;0.40;;
22907;SDS011;11620;50.050;8.690;2023-07-13T00:24:41;0.22;;;0.22;;
22907;SDS011;11620;50.050;8.690;2023-07-13T00:27:27;0.30;;;0.30;;
22907;SDS011;11620;50.050;8.690;2023-07-13T00:30:15;0.30;;;0.30;;
22907;SDS011;11620;50.050;8.690;2023-07-13T00:33:02;0.32;;;0.32;;
22907;SDS011;11620;50.050;8.690;2023-07-13T00:35:48;0.40;;;0.40;;
22907;SDS011;11620;50.050;8.690;2023-07-13T00:38:35;0.22;;;0.22;;
22907;SDS011;11620;50.050;8.690;2023-07-13T00:41:22;0.30;;;0.30;;
22907;SDS011;11620;50.050;8.690;2023-07-13T00:44:12;0.30;;;0.30;;
22907;SDS011;11620;50.050;8.690;2023-07-13T00:47:00;0.22;;;0.22;;
22907;SDS011;11620;50.050;8.690;2023-07-13T00:49:47;0.25;;;0.25;;
22907;SDS011;11620;50.050;8.690;2023-07-13T00:52:33;0.30;;;0.30;;
22907;SDS011;11620;50.050;8.690;2023-07-13T00:55:22;0.25;;;0.25;;
22907;SDS011;11620;50.050;8.690;2023-07-13T00:58:08;0.20;;;0.20;;
22907;SDS011;11620;50.050;8.690;2023-07-13T01:00:55;0.30;;;0.30;;
22907;SDS011;11620;50.050;8.690;2023-07-13T01:03:41;0.38;;;0.38;;
22907;SDS011;11620;50.050;8.690;2023-07-13T01:06:27;0.20;;;0.20;;
22907;SDS011;11620;50.050;8.690;2023-07-13T01:09:14;0.40;;;0.40;;
22907;SDS011;11620;50.050;8.690;2023-07-13T01:12:01;0.20;;;0.20;;
22907;SDS011;11620;50.050;8.690;2023-07-13T01:14:48;0.20;;;0.20;;
22907;SDS011;11620;50.050;8.690;2023-07-13T01:17:42;0.30;;;0.30;;
22907;SDS011;11620;50.050;8.690;2023-07-13T01:20:29;0.32;;;0.32;;
22907;SDS011;11620;50.050;8.690;2023-07-13T01:23:15;0.40;;;0.40;;
22907;SDS011;11620;50.050;8.690;2023-07-13T01:26:01;0.40;;;0.40;;
22907;SDS011;11620;50.050;8.690;2023-07-13T01:28:48;0.40;;;0.40;;
22907;SDS011;11620;50.050;8.690;2023-07-13T01:31:34;0.30;;;0.30;;
22907;SDS011;11620;50.050;8.690;2023-07-13T01:34:20;0.38;;;0.38;;
22907;SDS011;11620;50.050;8.690;2023-07-13T01:37:07;0.30;;;0.30;;
22907;SDS011;11620;50.050;8.690;2023-07-13T01:39:54;0.30;;;0.30;;
22907;SDS011;11620;50.050;8.690;2023-07-13T01:42:40;0.30;;;0.30;;
22907;SDS011;11620;50.050;8.690;2023-07-13T01:45:27;0.30;;;0.30;;
22907;SDS011;11620;50.050;8.690;2023-07-13T01:48:13;0.30;;;0.30;;
22907;SDS011;11620;50.050;8.690;2023-07-13T01:51:00;0.30;;;0.30;;
22907;SDS011;11620;50.050;8.690;2023-07-13T01:53:46;0.30;;;0.30;;
22907;SDS011;11620;50.050;8.690;2023-07-13T01:56:32;0.30;;;0.30;;
22907;SDS011;11620;50.050;8.690;2023-07-13T01:59:19;0.30;;;0.30;;
22907;SDS011;11620;50.050;8.690;2023-07-13T02:02:05;0.20;;;0.20;;
22907;SDS011;11620;50.050;8.690;2023-07-13T02:04:51;0.25;;;0.25;;
22907;SDS011;11620;50.050;8.690;2023-07-13T02:07:38;0.30;;;0.30;;
22907;SDS011;11620;50.050;8.690;2023-07-13T02:10:25;0.20;;;0.20;;
22907;SDS011;11620;50.050;8.690;2023-07-13T02:13:11;0.40;;;0.40;;
22907;SDS011;11620;50.050;8.690;2023-07-13T02:15:57;0.40;;;0.40;;
22907;SDS011;11620;50.050;8.690;2023-07-13T02:18:44;0.30;;;0.30;;
22907;SDS011;11620;50.050;8.690;2023-07-13T02:21:30;0.30;;;0.30;;
22907;SDS011;11620;50.050;8.690;2023-07-13T02:24:16;0.20;;;0.20;;
22907;SDS011;11620;50.050;8.690;2023-07-13T02:27:05;0.25;;;0.25;;
22907;SDS011;11620;50.050;8.690;2023-07-13T02:29:52;0.40;;;0.40;;
22907;SDS011;11620;50.050;8.690;2023-07-13T02:32:39;0.40;;;0.40;;
22907;SDS011;11620;50.050;8.690;2023-07-13T02:35:25;0.30;;;0.30;;
22907;SDS011;11620;50.050;8.690;2023-07-13T02:38:11;0.30;;;0.30;;
22907;SDS011;11620;50.050;8.690;2023-07-13T02:40:58;0.30;;;0.30;;
22907;SDS011;11620;50.050;8.690;2023-07-13T02:43:44;0.25;;;0.25;;
22907;SDS011;11620;50.050;8.690;2023-07-13T02:46:31;0.30;;;0.30;;
22907;SDS011;11620;50.050;8.690;2023-07-13T02:49:18;0.30;;;0.30;;
22907;SDS011;11620;50.050;8.690;2023-07-13T02:52:05;0.30;;;0.30;;
22907;SDS011;11620;50.050;8.690;2023-07-13T02:54:51;0.30;;;0.30;;
22907;SDS011;11620;50.050;8.690;2023-07-13T02:57:38;0.30;;;0.30;;
22907;SDS011;11620;50.050;8.690;2023-07-13T03:00:24;0.30;;;0.30;;
22907;SDS011;11620;50.050;8.690;2023-07-13T03:03:10;0.40;;;0.40;;
22907;SDS011;11620;50.050;8.690;2023-07-13T03:06:00;0.38;;;0.38;;
22907;SDS011;11620;50.050;8.690;2023-07-13T03:08:49;0.40;;;0.40;;
22907;SDS011;11620;50.050;8.690;2023-07-13T03:11:35;0.30;;;0.30;;
22907;SDS011;11620;50.050;8.690;2023-07-13T03:14:22;0.30;;;0.30;;
22907;SDS011;11620;50.050;8.690;2023-07-13T03:17:08;0.20;;;0.20;;
22907;SDS011;11620;50.050;8.690;2023-07-13T03:19:55;0.30;;;0.30;;
22907;SDS011;11620;50.050;8.690;2023-07-13T03:22:41;0.30;;;0.30;;
22907;SDS011;11620;50.050;8.690;2023-07-13T03:25:28;0.30;;;0.30;;
22907;SDS011;11620;50.050;8.690;2023-07-13T03:28:14;0.30;;;0.30;;
22907;SDS011;11620;50.050;8.690;2023-07-13T03:31:05;0.30;;;0.30;;
22907;SDS011;11620;50.050;8.690;2023-07-13T03:33:54;0.43;;;0.43;;
22907;SDS011;11620;50.050;8.690;2023-07-13T03:36:41;0.30;;;0.30;;
22907;SDS011;11620;50.050;8.690;2023-07-13T03:39:27;0.40;;;0.40;;
22907;SDS011;11620;50.050;8.690;2023-07-13T03:42:14;0.30;;;0.30;;
22907;SDS011;11620;50.050;8.690;2023-07-13T03:45:00;0.40;;;0.40;;
22907;SDS011;11620;50.050;8.690;2023-07-13T03:47:47;0.30;;;0.30;;
22907;SDS011;11620;50.050;8.690;2023-07-13T03:50:33;0.30;;;0.30;;
22907;SDS011;11620;50.050;8.690;2023-07-13T03:53:19;0.40;;;0.40;;
22907;SDS011;11620;50.050;8.690;2023-07-13T03:56:06;0.40;;;0.40;;
22907;SDS011;11620;50.050;8.690;2023-07-13T03:58:53;0.30;;;0.30;;
22907;SDS011;11620;50.050;8.690;2023-07-13T04:01:39;0.40;;;0.40;;
22907;SDS011;11620;50.050;8.690;2023-07-13T04:04:25;0.50;;;0.50;;
22907;SDS011;11620;50.050;8.690;2023-07-13T04:07:12;0.30;;;0.30;;
22907;SDS011;11620;50.050;8.690;2023-07-13T04:09:58;0.40;;;0.40;;
22907;SDS011;11620;50.050;8.690;2023-07-13T04:12:44;0.30;;;0.30;;
22907;SDS011;11620;50.050;8.690;2023-07-13T04:15:31;0.40;;;0.40;;
22907;SDS011;11620;50.050;8.690;2023-07-13T04:18:18;0.32;;;0.32;;
22907;SDS011;11620;50.050;8.690;2023-07-13T04:21:05;0.40;;;0.40;;
22907;SDS011;11620;50.050;8.690;2023-07-13T04:23:51;0.40;;;0.40;;
22907;SDS011;11620;50.050;8.690;2023-07-13T04:26:38;0.40;;;0.40;;
22907;SDS011;11620;50.050;8.690;2023-07-13T04:29:25;0.40;;;0.40;;
22907;SDS011;11620;50.050;8.690;2023-07-13T04:32:11;0.40;;;0.40;;
22907;SDS011;11620;50.050;8.690;2023-07-13T04:34:58;0.40;;;0.40;;
22907;SDS011;11620;50.050;8.690;2023-07-13T04:37:45;0.40;;;0.40;;
22907;SDS011;11620;50.050;8.690;2023-07-13T04:40:31;0.40;;;0.40;;
22907;SDS011;11620;50.050;8.690;2023-07-13T04:43:18;0.52;;;0.52;;
22907;SDS011;11620;50.050;8.690;2023-07-13T04:46:06;0.40;;;0.40;;
22907;SDS011;11620;50.050;8.690;2023-07-13T04:48:55;0.40;;;0.40;;
22907;SDS011;11620;50.050;8.690;2023-07-13T04:51:42;0.32;;;0.32;;
22907;SDS011;11620;50.050;8.690;2023-07-13T04:54:28;0.55;;;0.55;;
22907;SDS011;11620;50.050;8.690;2023-07-13T04:57:15;0.30;;;0.30;;
22907;SDS011;11620;50.050;8.690;2023-07-13T05:00:02;0.30;;;0.30;;
22907;SDS011;11620;50.050;8.690;2023-07-13T05:02:53;0.50;;;0.50;;
22907;SDS011;11620;50.050;8.690;2023-07-13T05:05:54;0.40;;;0.40;;
22907;SDS011;11620;50.050;8.690;2023-07-13T05:08:44;0.40;;;0.40;;
22907;SDS011;11620;50.050;8.690;2023-07-13T05:11:30;0.50;;;0.50;;
22907;SDS011;11620;50.050;8.690;2023-07-13T05:14:17;0.40;;;0.40;;
22907;SDS011;11620;50.050;8.690;2023-07-13T05:17:03;0.50;;;0.50;;
22907;SDS011;11620;50.050;8.690;2023-07-13T05:19:50;0.30;;;0.30;;
22907;SDS011;11620;50.050;8.690;2023-07-13T05:22:36;0.45;;;0.45;;
22907;SDS011;11620;50.050;8.690;2023-07-13T05:25:22;0.40;;;0.40;;
22907;SDS011;11620;50.050;8.690;2023-07-13T05:28:09;0.40;;;0.40;;
22907;SDS011;11620;50.050;8.690;2023-07-13T05:30:55;0.43;;;0.43;;
22907;SDS011;11620;50.050;8.690;2023-07-13T05:33:41;0.50;;;0.50;;
22907;SDS011;11620;50.050;8.690;2023-07-13T05:36:28;0.40;;;0.40;;
22907;SDS011;11620;50.050;8.690;2023-07-13T05:39:14;0.50;;;0.50;;
22907;SDS011;11620;50.050;8.690;2023-07-13T05:42:01;0.40;;;0.40;;
22907;SDS011;11620;50.050;8.690;2023-07-13T05:44:48;0.30;;;0.30;;
22907;SDS011;11620;50.050;8.690;2023-07-13T05:47:35;0.30;;;0.30;;
22907;SDS011;11620;50.050;8.690;2023-07-13T05:50:21;0.40;;;0.40;;
22907;SDS011;11620;50.050;8.690;2023-07-13T05:53:07;0.30;;;0.30;;
22907;SDS011;11620;50.050;8.690;2023-07-13T05:55:54;0.40;;;0.40;;
22907;SDS011;11620;50.050;8.690;2023-07-13T05:58:41;0.40;;;0.40;;
22907;SDS011;11620;50.050;8.690;2023-07-13T06:01:29;0.47;;;0.47;;
22907;SDS011;11620;50.050;8.690;2023-07-13T06:04:16;0.40;;;0.40;;
22907;SDS011;11620;50.050;8.690;2023-07-13T06:07:03;0.40;;;0.40;;
22907;SDS011;11620;50.050;8.690;2023-07-13T06:09:49;0.30;;;0.30;;
22907;SDS011;11620;50.050;8.690;2023-07-13T06:12:36;0.50;;;0.50;;
22907;SDS011;11620;50.050;8.690;2023-07-13T06:15:22;0.63;;;0.63;;
22907;SDS011;11620;50.050;8.690;2023-07-13T06:18:08;0.70;;;0.70;;
22907;SDS011;11620;50.050;8.690;2023-07-13T06:20:55;0.60;;;0.60;;
22907;SDS011;11620;50.050;8.690;2023-07-13T06:23:41;0.68;;;0.68;;
22907;SDS011;11620;50.050;8.690;2023-07-13T06:26:28;0.70;;;0.70;;
22907;SDS011;11620;50.050;8.690;2023-07-13T06:29:15;0.70;;;0.70;;
22907;SDS011;11620;50.050;8.690;2023-07-13T06:32:01;0.70;;;0.70;;
22907;SDS011;11620;50.050;8.690;2023-07-13T06:34:48;0.60;;;0.60;;
22907;SDS011;11620;50.050;8.690;2023-07-13T06:37:34;0.60;;;0.60;;
22907;SDS011;11620;50.050;8.690;2023-07-13T06:40:20;0.70;;;0.70;;
22907;SDS011;11620;50.050;8.690;2023-07-13T06:43:06;0.60;;;0.60;;
22907;SDS011;11620;50.050;8.690;2023-07-13T06:45:54;0.70;;;0.70;;
22907;SDS011;11620;50.050;8.690;2023-07-13T06:48:42;0.68;;;0.68;;
22907;SDS011;11620;50.050;8.690;2023-07-13T06:51:28;0.60;;;0.60;;
22907;SDS011;11620;50.050;8.690;2023-07-13T06:54:15;0.60;;;0.60;;
22907;SDS011;11620;50.050;8.690;2023-07-13T06:57:01;0.60;;;0.60;;
22907;SDS011;11620;50.050;8.690;2023-07-13T06:59:47;0.60;;;0.60;;
22907;SDS011;11620;50.050;8.690;2023-07-13T07:02:34;0.70;;;0.70;;
22907;SDS011;11620;50.050;8.690;2023-07-13T07:05:20;0.60;;;0.60;;
22907;SDS011;11620;50.050;8.690;2023-07-13T07:08:07;0.70;;;0.70;;
22907;SDS011;11620;50.050;8.690;2023-07-13T07:10:54;0.70;;;0.70;;
22907;SDS011;11620;50.050;8.690;2023-07-13T07:13:40;0.70;;;0.70;;
22907;SDS011;11620;50.050;8.690;2023-07-13T07:16:27;0.65;;;0.65;;
22907;SDS011;11620;50.050;8.690;2023-07-13T07:19:13;0.70;;;0.70;;
22907;SDS011;11620;50.050;8.690;2023-07-13T07:21:59;0.80;;;0.80;;
22907;SDS011;11620;50.050;8.690;2023-07-13T07:24:46;0.90;;;0.90;;
22907;SDS011;11620;50.050;8.690;2023-07-13T07:27:32;0.50;;;0.50;;
22907;SDS011;11620;50.050;8.690;2023-07-13T07:30:18;0.63;;;0.63;;
22907;SDS011;11620;50.050;8.690;2023-07-13T07:33:05;0.70;;;0.70;;
22907;SDS011;11620;50.050;8.690;2023-07-13T07:35:51;0.70;;;0.70;;
22907;SDS011;11620;50.050;8.690;2023-07-13T07:38:38;0.80;;;0.80;;
22907;SDS011;11620;50.050;8.690;2023-07-13T07:41:24;0.70;;;0.70;;
22907;SDS011;11620;50.050;8.690;2023-07-13T07:44:10;0.70;;;0.70;;
22907;SDS011;11620;50.050;8.690;2023-07-13T07:46:57;0.60;;;0.60;;
22907;SDS011;11620;50.050;8.690;2023-07-13T07:49:44;0.60;;;0.60;;
22907;SDS011;11620;50.050;8.690;2023-07-13T07:52:30;0.60;;;0.60;;
22907;SDS011;11620;50.050;8.690;2023-07-13T07:55:16;0.70;;;0.70;;
22907;SDS011;11620;50.050;8.690;2023-07-13T07:58:03;0.65;;;0.65;;
22907;SDS011;11620;50.050;8.690;2023-07-13T08:00:50;0.65;;;0.65;;
22907;SDS011;11620;50.050;8.690;2023-07-13T08:03:36;0.60;;;0.60;;
22907;SDS011;11620;50.050;8.690;2023-07-13T08:06:23;0.52;;;0.52;;
22907;SDS011;11620;50.050;8.690;2023-07-13T08:09:09;0.60;;;0.60;;
22907;SDS011;11620;50.050;8.690;2023-07-13T08:11:55;0.68;;;0.68;;
22907;SDS011;11620;50.050;8.690;2023-07-13T08:14:42;0.70;;;0.70;;
22907;SDS011;11620;50.050;8.690;2023-07-13T08:17:28;0.70;;;0.70;;
22907;SDS011;11620;50.050;8.690;2023-07-13T08:20:15;0.60;;;0.60;;
22907;SDS011;11620;50.050;8.690;2023-07-13T08:23:01;0.65;;;0.65;;
22907;SDS011;11620;50.050;8.690;2023-07-13T08:25:54;0.63;;;0.63;;
22907;SDS011;11620;50.050;8.690;2023-07-13T08:28:41;0.60;;;0.60;;
22907;SDS011;11620;50.050;8.690;2023-07-13T08:31:27;0.70;;;0.70;;
22907;SDS011;11620;50.050;8.690;2023-07-13T08:34:13;0.60;;;0.60;;
22907;SDS011;11620;50.050;8.690;2023-07-13T08:37:01;0.60;;;0.60;;
22907;SDS011;11620;50.050;8.690;2023-07-13T08:39:48;0.70;;;0.70;;
22907;SDS011;11620;50.050;8.690;2023-07-13T08:46:10;0.68;;;0.68;;
22907;SDS011;11620;50.050;8.690;2023-07-13T08:49:13;0.80;;;0.80;;
22907;SDS011;11620;50.050;8.690;2023-07-13T08:52:03;0.70;;;0.70;;
22907;SDS011;11620;50.050;8.690;2023-07-13T08:54:57;0.70;;;0.70;;
22907;SDS011;11620;50.050;8.690;2023-07-13T08:57:56;0.50;;;0.50;;
22907;SDS011;11620;50.050;8.690;2023-07-13T09:00:52;0.60;;;0.60;;
22907;SDS011;11620;50.050;8.690;2023-07-13T09:07:05;0.55;;;0.55;;
22907;SDS011;11620;50.050;8.690;2023-07-13T09:13:37;0.60;;;0.60;;
22907;SDS011;11620;50.050;8.690;2023-07-13T09:16:13;0.60;;;0.60;;
22907;SDS011;11620;50.050;8.690;2023-07-13T09:19:02;0.60;;;0.60;;
22907;SDS011;11620;50.050;8.690;2023-07-13T09:21:52;0.50;;;0.50;;
22907;SDS011;11620;50.050;8.690;2023-07-13T09:24:49;0.65;;;0.65;;
22907;SDS011;11620;50.050;8.690;2023-07-13T09:27:40;0.60;;;0.60;;
22907;SDS011;11620;50.050;8.690;2023-07-13T09:30:34;0.80;;;0.80;;
22907;SDS011;11620;50.050;8.690;2023-07-13T09:33:25;0.70;;;0.70;;
22907;SDS011;11620;50.050;8.690;2023-07-13T09:39:26;0.60;;;0.60;;
22907;SDS011;11620;50.050;8.690;2023-07-13T09:42:16;0.68;;;0.68;;
22907;SDS011;11620;50.050;8.690;2023-07-13T09:45:04;0.70;;;0.70;;
22907;SDS011;11620;50.050;8.690;2023-07-13T09:48:10;0.70;;;0.70;;
22907;SDS011;11620;50.050;8.690;2023-07-13T09:50:59;0.60;;;0.60;;
22907;SDS011;11620;50.050;8.690;2023-07-13T09:53:59;0.50;;;0.50;;
22907;SDS011;11620;50.050;8.690;2023-07-13T09:56:45;0.57;;;0.57;;
22907;SDS011;11620;50.050;8.690;2023-07-13T09:59:36;0.47;;;0.47;;
22907;SDS011;11620;50.050;8.690;2023-07-13T10:02:28;0.50;;;0.50;;
22907;SDS011;11620;50.050;8.690;2023-07-13T10:05:18;0.50;;;0.50;;
22907;SDS011;11620;50.050;8.690;2023-07-13T10:11:11;0.70;;;0.70;;
22907;SDS011;11620;50.050;8.690;2023-07-13T10:14:16;0.50;;;0.50;;
22907;SDS011;11620;50.050;8.690;2023-07-13T10:17:06;0.60;;;0.60;;
22907;SDS011;11620;50.050;8.690;2023-07-13T10:20:02;0.60;;;0.60;;
22907;SDS011;11620;50.050;8.690;2023-07-13T10:23:00;0.50;;;0.50;;
22907;SDS011;11620;50.050;8.690;2023-07-13T10:25:50;0.60;;;0.60;;
22907;SDS011;11620;50.050;8.690;2023-07-13T10:28:36;0.60;;;0.60;;
22907;SDS011;11620;50.050;8.690;2023-07-13T10:31:25;0.50;;;0.50;;
22907;SDS011;11620;50.050;8.690;2023-07-13T10:34:12;0.50;;;0.50;;
22907;SDS011;11620;50.050;8.690;2023-07-13T10:36:59;0.45;;;0.45;;
22907;SDS011;11620;50.050;8.690;2023-07-13T10:39:47;0.50;;;0.50;;
22907;SDS011;11620;50.050;8.690;2023-07-13T10:42:37;0.52;;;0.52;;
22907;SDS011;11620;50.050;8.690;2023-07-13T10:45:33;0.40;;;0.40;;
22907;SDS011;11620;50.050;8.690;2023-07-13T10:48:21;0.30;;;0.30;;
22907;SDS011;11620;50.050;8.690;2023-07-13T10:51:09;0.50;;;0.50;;
22907;SDS011;11620;50.050;8.690;2023-07-13T11:02:59;0.50;;;0.50;;
22907;SDS011;11620;50.050;8.690;2023-07-13T11:05:50;0.50;;;0.50;;
22907;SDS011;11620;50.050;8.690;2023-07-13T11:11:38;0.45;;;0.45;;
22907;SDS011;11620;50.050;8.690;2023-07-13T11:20:30;0.43;;;0.43;;
22907;SDS011;11620;50.050;8.690;2023-07-13T11:23:28;0.38;;;0.38;;
22907;SDS011;11620;50.050;8.690;2023-07-13T11:32:25;0.43;;;0.43;;
22907;SDS011;11620;50.050;8.690;2023-07-13T11:35:17;0.47;;;0.47;;
22907;SDS011;11620;50.050;8.690;2023-07-13T11:38:12;0.30;;;0.30;;
22907;SDS011;11620;50.050;8.690;2023-07-13T11:41:04;0.40;;;0.40;;
22907;SDS011;11620;50.050;8.690;2023-07-13T11:44:14;0.50;;;0.50;;
22907;SDS011;11620;50.050;8.690;2023-07-13T11:47:10;0.50;;;0.50;;
22907;SDS011;11620;50.050;8.690;2023-07-13T11:50:00;0.40;;;0.40;;
22907;SDS011;11620;50.050;8.690;2023-07-13T11:52:46;0.40;;;0.40;;
22907;SDS011;11620;50.050;8.690;2023-07-13T11:55:37;0.40;;;0.40;;
22907;SDS011;11620;50.050;8.690;2023-07-13T11:58:26;0.20;;;0.20;;
22907;SDS011;11620;50.050;8.690;2023-07-13T12:01:18;0.45;;;0.45;;
22907;SDS011;11620;50.050;8.690;2023-07-13T12:04:08;0.50;;;0.50;;
22907;SDS011;11620;50.050;8.690;2023-07-13T12:07:11;0.50;;;0.50;;
22907;SDS011;11620;50.050;8.690;2023-07-13T12:10:02;0.30;;;0.30;;
22907;SDS011;11620;50.050;8.690;2023-07-13T12:12:57;0.50;;;0.50;;
22907;SDS011;11620;50.050;8.690;2023-07-13T12:15:44;0.50;;;0.50;;
22907;SDS011;11620;50.050;8.690;2023-07-13T12:18:32;0.35;;;0.35;;
22907;SDS011;11620;50.050;8.690;2023-07-13T12:21:19;0.32;;;0.32;;
22907;SDS011;11620;50.050;8.690;2023-07-13T12:24:13;0.30;;;0.30;;
22907;SDS011;11620;50.050;8.690;2023-07-13T12:27:04;0.47;;;0.47;;
22907;SDS011;11620;50.050;8.690;2023-07-13T12:29:52;0.40;;;0.40;;
22907;SDS011;11620;50.050;8.690;2023-07-13T12:32:54;0.30;;;0.30;;
22907;SDS011;11620;50.050;8.690;2023-07-13T12:36:03;0.30;;;0.30;;
22907;SDS011;11620;50.050;8.690;2023-07-13T12:38:51;0.52;;;0.52;;
22907;SDS011;11620;50.050;8.690;2023-07-13T12:41:38;0.40;;;0.40;;
22907;SDS011;11620;50.050;8.690;2023-07-13T12:44:28;0.30;;;0.30;;
22907;SDS011;11620;50.050;8.690;2023-07-13T12:47:16;0.38;;;0.38;;
22907;SDS011;11620;50.050;8.690;2023-07-13T12:50:12;0.30;;;0.30;;
22907;SDS011;11620;50.050;8.690;2023-07-13T12:53:05;0.40;;;0.40;;
22907;SDS011;11620;50.050;8.690;2023-07-13T12:55:56;0.40;;;0.40;;
22907;SDS011;11620;50.050;8.690;2023-07-13T12:58:45;0.40;;;0.40;;
22907;SDS011;11620;50.050;8.690;2023-07-13T13:01:35;0.38;;;0.38;;
22907;SDS011;11620;50.050;8.690;2023-07-13T13:04:25;0.50;;;0.50;;
22907;SDS011;11620;50.050;8.690;2023-07-13T13:07:11;0.40;;;0.40;;
22907;SDS011;11620;50.050;8.690;2023-07-13T13:09:58;0.40;;;0.40;;
22907;SDS011;11620;50.050;8.690;2023-07-13T13:12:44;0.40;;;0.40;;
22907;SDS011;11620;50.050;8.690;2023-07-13T13:15:30;0.30;;;0.30;;
22907;SDS011;11620;50.050;8.690;2023-07-13T13:18:19;0.43;;;0.43;;
22907;SDS011;11620;50.050;8.690;2023-07-13T13:21:09;0.30;;;0.30;;
22907;SDS011;11620;50.050;8.690;2023-07-13T13:23:56;0.40;;;0.40;;
22907;SDS011;11620;50.050;8.690;2023-07-13T13:26:43;0.40;;;0.40;;
22907;SDS011;11620;50.050;8.690;2023-07-13T13:29:34;0.38;;;0.38;;
22907;SDS011;11620;50.050;8.690;2023-07-13T13:32:24;0.40;;;0.40;;
22907;SDS011;11620;50.050;8.690;2023-07-13T13:35:14;0.40;;;0.40;;
22907;SDS011;11620;50.050;8.690;2023-07-13T13:38:01;0.40;;;0.40;;
22907;SDS011;11620;50.050;8.690;2023-07-13T13:40:48;0.40;;;0.40;;
22907;SDS011;11620;50.050;8.690;2023-07-13T13:43:34;0.40;;;0.40;;
22907;SDS011;11620;50.050;8.690;2023-07-13T13:46:21;0.32;;;0.32;;
22907;SDS011;11620;50.050;8.690;2023-07-13T13:49:14;0.30;;;0.30;;
22907;SDS011;11620;50.050;8.690;2023-07-13T13:52:03;0.50;;;0.50;;
22907;SDS011;11620;50.050;8.690;2023-07-13T13:54:49;0.40;;;0.40;;
22907;SDS011;11620;50.050;8.690;2023-07-13T13:57:36;0.35;;;0.35;;
22907;SDS011;11620;50.050;8.690;2023-07-13T14:00:22;0.47;;;0.47;;
22907;SDS011;11620;50.050;8.690;2023-07-13T14:03:17;0.22;;;0.22;;
22907;SDS011;11620;50.050;8.690;2023-07-13T14:06:04;0.40;;;0.40;;
22907;SDS011;11620;50.050;8.690;2023-07-13T14:08:50;0.40;;;0.40;;
22907;SDS011;11620;50.050;8.690;2023-07-13T14:11:37;0.30;;;0.30;;
22907;SDS011;11620;50.050;8.690;2023-07-13T14:14:23;0.50;;;0.50;;
22907;SDS011;11620;50.050;8.690;2023-07-13T14:17:22;0.43;;;0.43;;
22907;SDS011;11620;50.050;8.690;2023-07-13T14:20:11;0.40;;;0.40;;
22907;SDS011;11620;50.050;8.690;2023-07-13T14:22:58;0.50;;;0.50;;
22907;SDS011;11620;50.050;8.690;2023-07-13T14:25:45;0.30;;;0.30;;
22907;SDS011;11620;50.050;8.690;2023-07-13T14:28:32;0.47;;;0.47;;
22907;SDS011;11620;50.050;8.690;2023-07-13T14:31:19;0.40;;;0.40;;
22907;SDS011;11620;50.050;8.690;2023-07-13T14:34:07;0.40;;;0.40;;
22907;SDS011;11620;50.050;8.690;2023-07-13T14:36:55;0.30;;;0.30;;
22907;SDS011;11620;50.050;8.690;2023-07-13T14:39:44;0.40;;;0.40;;
22907;SDS011;11620;50.050;8.690;2023-07-13T14:42:35;0.50;;;0.50;;
22907;SDS011;11620;50.050;8.690;2023-07-13T14:45:21;0.50;;;0.50;;
22907;SDS011;11620;50.050;8.690;2023-07-13T14:48:15;0.40;;;0.40;;
22907;SDS011;11620;50.050;8.690;2023-07-13T14:51:09;0.32;;;0.32;;
22907;SDS011;11620;50.050;8.690;2023-07-13T14:53:55;0.30;;;0.30;;
22907;SDS011;11620;50.050;8.690;2023-07-13T14:56:42;0.40;;;0.40;;
22907;SDS011;11620;50.050;8.690;2023-07-13T14:59:28;0.30;;;0.30;;
22907;SDS011;11620;50.050;8.690;2023-07-13T15:02:18;0.25;;;0.25;;
22907;SDS011;11620;50.050;8.690;2023-07-13T15:05:12;0.30;;;0.30;;
22907;SDS011;11620;50.050;8.690;2023-07-13T15:08:03;0.30;;;0.30;;
22907;SDS011;11620;50.050;8.690;2023-07-13T15:10:50;0.30;;;0.30;;
22907;SDS011;11620;50.050;8.690;2023-07-13T15:13:36;0.30;;;0.30;;
22907;SDS011;11620;50.050;8.690;2023-07-13T15:16:24;0.40;;;0.40;;
22907;SDS011;11620;50.050;8.690;2023-07-13T15:19:11;0.40;;;0.40;;
22907;SDS011;11620;50.050;8.690;2023-07-13T15:21:58;0.35;;;0.35;;
22907;SDS011;11620;50.050;8.690;2023-07-13T15:24:44;0.20;;;0.20;;
22907;SDS011;11620;50.050;8.690;2023-07-13T15:27:30;0.35;;;0.35;;
22907;SDS011;11620;50.050;8.690;2023-07-13T15:30:17;0.30;;;0.30;;
22907;SDS011;11620;50.050;8.690;2023-07-13T15:33:12;0.28;;;0.28;;
22907;SDS011;11620;50.050;8.690;2023-07-13T15:36:11;0.50;;;0.50;;
22907;SDS011;11620;50.050;8.690;2023-07-13T15:38:58;0.35;;;0.35;;
22907;SDS011;11620;50.050;8.690;2023-07-13T15:41:45;0.40;;;0.40;;
22907;SDS011;11620;50.050;8.690;2023-07-13T15:44:32;0.40;;;0.40;;
22907;SDS011;11620;50.050;8.690;2023-07-13T15:47:19;0.45;;;0.45;;
22907;SDS011;11620;50.050;8.690;2023-07-13T15:50:08;0.30;;;0.30;;
22907;SDS011;11620;50.050;8.690;2023-07-13T15:52:59;0.25;;;0.25;;
22907;SDS011;11620;50.050;8.690;2023-07-13T15:55:45;0.40;;;0.40;;
22907;SDS011;11620;50.050;8.690;2023-07-13T15:58:31;0.30;;;0.30;;
22907;SDS011;11620;50.050;8.690;2023-07-13T16:01:18;0.40;;;0.40;;
22907;SDS011;11620;50.050;8.690;2023-07-13T16:04:04;0.30;;;0.30;;
22907;SDS011;11620;50.050;8.690;2023-07-13T16:06:51;0.35;;;0.35;;
22907;SDS011;11620;50.050;8.690;2023-07-13T16:09:37;0.40;;;0.40;;
22907;SDS011;11620;50.050;8.690;2023-07-13T16:12:25;0.40;;;0.40;;
22907;SDS011;11620;50.050;8.690;2023-07-13T16:15:16;0.32;;;0.32;;
22907;SDS011;11620;50.050;8.690;2023-07-13T16:18:04;0.40;;;0.40;;
22907;SDS011;11620;50.050;8.690;2023-07-13T16:20:51;0.40;;;0.40;;
22907;SDS011;11620;50.050;8.690;2023-07-13T16:23:39;0.35;;;0.35;;
22907;SDS011;11620;50.050;8.690;2023-07-13T16:26:30;0.40;;;0.40;;
22907;SDS011;11620;50.050;8.690;2023-07-13T16:29:30;0.30;;;0.30;;
22907;SDS011;11620;50.050;8.690;2023-07-13T16:32:17;0.40;;;0.40;;
22907;SDS011;11620;50.050;8.690;2023-07-13T16:35:03;0.40;;;0.40;;
22907;SDS011;11620;50.050;8.690;2023-07-13T16:37:51;0.40;;;0.40;;
22907;SDS011;11620;50.050;8.690;2023-07-13T16:40:38;0.30;;;0.30;;
22907;SDS011;11620;50.050;8.690;2023-07-13T16:43:25;0.43;;;0.43;;
22907;SDS011;11620;50.050;8.690;2023-07-13T16:46:12;0.30;;;0.30;;
22907;SDS011;11620;50.050;8.690;2023-07-13T16:49:01;0.38;;;0.38;;
22907;SDS011;11620;50.050;8.690;2023-07-13T16:51:47;0.20;;;0.20;;
22907;SDS011;11620;50.050;8.690;2023-07-13T16:54:35;0.40;;;0.40;;
22907;SDS011;11620;50.050;8.690;2023-07-13T16:57:25;0.40;;;0.40;;
22907;SDS011;11620;50.050;8.690;2023-07-13T17:03:15;0.20;;;0.20;;
22907;SDS011;11620;50.050;8.690;2023-07-13T17:06:13;0.30;;;0.30;;
22907;SDS011;11620;50.050;8.690;2023-07-13T17:09:10;0.30;;;0.30;;
22907;SDS011;11620;50.050;8.690;2023-07-13T17:11:59;0.40;;;0.40;;
22907;SDS011;11620;50.050;8.690;2023-07-13T17:14:45;0.30;;;0.30;;
22907;SDS011;11620;50.050;8.690;2023-07-13T17:17:37;0.30;;;0.30;;
22907;SDS011;11620;50.050;8.690;2023-07-13T17:20:29;0.30;;;0.30;;
22907;SDS011;11620;50.050;8.690;2023-07-13T17:23:23;0.30;;;0.30;;
22907;SDS011;11620;50.050;8.690;2023-07-13T17:26:11;0.40;;;0.40;;
22907;SDS011;11620;50.050;8.690;2023-07-13T17:28:57;0.30;;;0.30;;
22907;SDS011;11620;50.050;8.690;2023-07-13T17:31:43;0.30;;;0.30;;
22907;SDS011;11620;50.050;8.690;2023-07-13T17:34:33;0.30;;;0.30;;
22907;SDS011;11620;50.050;8.690;2023-07-13T17:37:20;0.40;;;0.40;;
22907;SDS011;11620;50.050;8.690;2023-07-13T17:40:12;0.20;;;0.20;;